Time;durP1;ratioP1;P1;durP2;ratioP2;P2;SDS_P1;SDS_P2;PMS_P1;PMS_P2;Temp;Humidity;BMP_temperature;BMP_pressure;BME280_temperature;BME280_humidity;BME280_pressure;Samples;Min_cycle;Max_cycle;Signal;HPM_P1;HPM_P2
2023/03/05 00:02:07;;;;;;;3.20;1.30;;;3.80;99.90;;;;;;4952033;29;20111;-78
2023/03/05 00:04:33;;;;;;;8.10;1.40;;;3.80;99.90;;;;;;4953401;28;20047;-77
2023/03/05 00:06:58;;;;;;;4.85;1.55;;;4.30;99.90;;;;;;4952544;29;20082;-77
2023/03/05 00:09:24;;;;;;;3.35;1.38;;;3.80;99.90;;;;;;4952209;28;20050;-78
2023/03/05 00:11:50;;;;;;;3.33;1.33;;;3.80;99.90;;;;;;4952832;29;20047;-78
2023/03/05 00:14:16;;;;;;;5.75;1.17;;;3.80;99.90;;;;;;4953279;28;20604;-78
2023/03/05 00:16:41;;;;;;;5.97;1.70;;;3.70;99.90;;;;;;4953586;28;20531;-78
2023/03/05 00:19:07;;;;;;;5.20;1.20;;;3.70;99.90;;;;;;4935599;29;20397;-81
2023/03/05 00:21:36;;;;;;;5.00;1.67;;;3.90;99.90;;;;;;4950959;29;20050;-78
2023/03/05 00:24:06;;;;;;;6.47;1.83;;;3.70;99.90;;;;;;4952477;28;20051;-81
2023/03/05 00:26:34;;;;;;;3.53;1.20;;;3.70;99.90;;;;;;4952325;29;20486;-78
2023/03/05 00:29:00;;;;;;;8.80;1.30;;;3.70;99.90;;;;;;4953839;28;20382;-78
2023/03/05 00:31:29;;;;;;;4.43;1.35;;;3.70;99.90;;;;;;4957036;28;20050;-77
2023/03/05 00:33:57;;;;;;;6.32;1.50;;;3.70;99.90;;;;;;4957145;28;20507;-77
2023/03/05 00:36:24;;;;;;;9.18;1.17;;;3.70;99.90;;;;;;4956935;28;20074;-78
2023/03/05 00:38:50;;;;;;;7.90;2.28;;;3.70;99.90;;;;;;4954979;28;20058;-79
2023/03/05 00:41:15;;;;;;;6.55;1.65;;;3.70;99.90;;;;;;4956873;28;20050;-77
2023/03/05 00:43:41;;;;;;;7.45;1.58;;;3.70;99.90;;;;;;4957251;28;20077;-77
2023/03/05 00:46:07;;;;;;;4.28;1.33;;;3.70;99.90;;;;;;4956652;28;20077;-78
2023/03/05 00:48:33;;;;;;;8.27;1.80;;;3.70;99.90;;;;;;4956893;28;20229;-77
2023/03/05 00:50:58;;;;;;;3.55;1.33;;;3.70;99.90;;;;;;4956946;28;20043;-78
2023/03/05 00:53:24;;;;;;;3.10;1.15;;;3.70;99.90;;;;;;4956554;29;20125;-78
2023/03/05 00:55:50;;;;;;;5.80;1.40;;;4.10;99.90;;;;;;4956456;28;20086;-77
2023/03/05 00:58:16;;;;;;;4.65;2.05;;;3.70;99.90;;;;;;4955613;29;20448;-78
2023/03/05 01:00:41;;;;;;;7.13;1.40;;;3.70;99.90;;;;;;4956952;28;20137;-79
2023/03/05 01:03:08;;;;;;;3.63;1.15;;;3.70;99.90;;;;;;4955944;28;20047;-80
2023/03/05 01:05:33;;;;;;;;;;;3.70;99.90;;;;;;4957095;28;20047;-78
2023/03/05 01:07:59;;;;;;;2.95;1.15;;;3.70;99.90;;;;;;4956238;28;20258;-78
2023/03/05 01:10:25;;;;;;;5.03;1.48;;;3.60;99.90;;;;;;4955131;29;20484;-77
2023/03/05 01:12:53;;;;;;;3.28;1.17;;;3.60;99.90;;;;;;4955666;28;20062;-77
2023/03/05 01:15:18;;;;;;;4.28;0.98;;;3.60;99.90;;;;;;4956401;28;20059;-77
2023/03/05 01:17:44;;;;;;;1.60;0.90;;;3.60;99.90;;;;;;4955475;29;20047;-77
2023/03/05 01:20:13;;;;;;;2.80;1.08;;;3.60;99.90;;;;;;4956117;28;20043;-80
2023/03/05 01:22:39;;;;;;;2.90;1.08;;;3.60;99.90;;;;;;4955991;28;20397;-78
2023/03/05 01:25:06;;;;;;;6.72;0.90;;;3.60;99.90;;;;;;4939257;29;20055;-77
2023/03/05 01:27:32;;;;;;;2.30;1.00;;;3.60;99.90;;;;;;4956016;28;20055;-79
2023/03/05 01:29:58;;;;;;;2.90;1.00;;;3.90;99.90;;;;;;4956243;28;20058;-77
2023/03/05 01:32:23;;;;;;;3.83;1.10;;;3.60;99.90;;;;;;4956240;28;20047;-77
2023/03/05 01:34:49;;;;;;;2.00;1.00;;;3.60;99.90;;;;;;4955999;28;20043;-77
2023/03/05 01:37:15;;;;;;;3.33;1.10;;;3.60;99.90;;;;;;4955818;28;20058;-77
2023/03/05 01:39:40;;;;;;;2.20;1.17;;;3.60;99.90;;;;;;4954967;28;20043;-77
2023/03/05 01:42:06;;;;;;;2.97;1.25;;;3.50;99.90;;;;;;4939088;29;20061;-77
2023/03/05 01:44:32;;;;;;;4.55;0.98;;;3.50;99.90;;;;;;4955867;28;20055;-77
2023/03/05 01:46:58;;;;;;;3.92;1.10;;;3.50;99.90;;;;;;4955960;28;20457;-78
2023/03/05 01:49:34;;;;;;;3.40;0.90;;;3.50;99.90;;;;;;4955591;28;20083;-77
2023/03/05 01:52:16;;;;;;;3.42;0.95;;;3.50;99.90;;;;;;4955234;29;20058;-77
2023/03/05 01:54:46;;;;;;;4.18;1.10;;;3.60;99.90;;;;;;4955420;28;20070;-77
2023/03/05 01:57:17;;;;;;;6.80;1.10;;;3.50;99.90;;;;;;4954232;29;20105;-80
2023/03/05 01:59:45;;;;;;;3.83;1.30;;;3.50;99.90;;;;;;4956036;28;20051;-77
2023/03/05 02:02:12;;;;;;;3.33;1.20;;;3.40;99.90;;;;;;4955773;28;20130;-80
2023/03/05 02:05:09;;;;;;;4.78;1.33;;;3.40;99.90;;;;;;4955764;28;20126;-76
2023/03/05 02:07:36;;;;;;;6.20;2.33;;;3.40;99.90;;;;;;4954990;28;20086;-76
2023/03/05 02:10:19;;;;;;;5.90;1.40;;;3.30;99.90;;;;;;4955264;28;20055;-77
2023/03/05 02:12:47;;;;;;;6.40;1.40;;;3.30;99.90;;;;;;4954984;29;20059;-77
2023/03/05 02:15:14;;;;;;;5.20;1.85;;;3.30;99.90;;;;;;4955253;28;20050;-79
2023/03/05 02:17:40;;;;;;;10.02;1.35;;;3.30;99.90;;;;;;4955437;28;20490;-77
2023/03/05 02:20:14;;;;;;;4.95;1.30;;;3.30;99.90;;;;;;4955559;28;20090;-77
2023/03/05 02:22:40;;;;;;;3.03;1.20;;;3.30;99.90;;;;;;4955262;28;20106;-77
2023/03/05 02:25:32;;;;;;;8.77;1.30;;;3.30;99.90;;;;;;4955172;28;20047;-77
2023/03/05 02:28:07;;;;;;;4.13;1.05;;;3.30;99.90;;;;;;4955544;28;20062;-76
2023/03/05 02:30:34;;;;;;;4.35;1.30;;;3.20;99.90;;;;;;4955247;28;20062;-77
2023/03/05 02:33:00;;;;;;;5.15;1.52;;;3.20;99.90;;;;;;4955365;28;20122;-77
2023/03/05 02:35:26;;;;;;;3.40;1.10;;;3.10;99.90;;;;;;4954888;28;20050;-77
2023/03/05 02:37:52;;;;;;;5.38;1.38;;;3.10;99.90;;;;;;4953658;29;20413;-78
2023/03/05 02:40:18;;;;;;;11.23;1.45;;;3.10;99.90;;;;;;4953748;28;20051;-78
2023/03/05 02:42:44;;;;;;;5.57;1.38;;;3.10;99.90;;;;;;4955149;28;20554;-77
2023/03/05 02:45:10;;;;;;;5.60;1.50;;;3.10;99.90;;;;;;4955216;28;20130;-77
2023/03/05 02:47:36;;;;;;;6.72;1.50;;;3.10;99.90;;;;;;4953664;29;20058;-77
2023/03/05 02:50:03;;;;;;;2.63;1.50;;;3.10;99.90;;;;;;4954947;28;20051;-77
2023/03/05 02:52:29;;;;;;;6.40;1.75;;;3.00;99.90;;;;;;4954065;28;20047;-78
2023/03/05 02:54:55;;;;;;;4.28;1.77;;;3.00;99.90;;;;;;4954705;28;20055;-77
2023/03/05 02:57:21;;;;;;;3.88;1.33;;;3.00;99.90;;;;;;4954727;28;20142;-77
2023/03/05 02:59:47;;;;;;;4.50;1.30;;;2.90;99.90;;;;;;4955038;28;20051;-77
2023/03/05 03:02:13;;;;;;;2.00;1.10;;;2.90;99.90;;;;;;4954607;28;20106;-77
2023/03/05 03:04:39;;;;;;;6.00;1.63;;;2.90;99.90;;;;;;4954345;28;20489;-77
2023/03/05 03:07:04;;;;;;;4.03;1.52;;;2.70;99.90;;;;;;4954705;28;20485;-77
2023/03/05 03:09:32;;;;;;;8.18;1.40;;;2.70;99.90;;;;;;4951872;29;20058;-77
2023/03/05 03:11:57;;;;;;;4.63;1.23;;;2.70;99.90;;;;;;4954406;28;20504;-76
2023/03/05 03:14:23;;;;;;;5.25;1.58;;;2.60;99.90;;;;;;4954596;28;20055;-77
2023/03/05 03:16:49;;;;;;;9.90;1.67;;;2.60;99.90;;;;;;4955024;28;20090;-77
2023/03/05 03:19:15;;;;;;;3.08;1.30;;;2.60;99.90;;;;;;4953451;29;20063;-76
2023/03/05 03:21:40;;;;;;;4.25;1.35;;;2.60;99.90;;;;;;4952926;29;20051;-77
2023/03/05 03:24:06;;;;;;;3.42;1.52;;;2.60;99.90;;;;;;4953393;28;20047;-77
2023/03/05 03:26:32;;;;;;;3.78;1.35;;;2.60;99.90;;;;;;4954124;28;20109;-77
2023/03/05 03:28:57;;;;;;;5.20;1.80;;;3.10;99.90;;;;;;4953135;29;20057;-77
2023/03/05 03:31:23;;;;;;;3.17;1.27;;;2.60;99.90;;;;;;4937108;29;20055;-77
2023/03/05 03:33:49;;;;;;;3.35;1.23;;;2.60;99.90;;;;;;4954221;28;20137;-77
2023/03/05 03:36:15;;;;;;;4.95;1.50;;;2.70;99.90;;;;;;4954360;28;20055;-77
2023/03/05 03:38:41;;;;;;;4.35;1.35;;;2.80;99.90;;;;;;4953265;28;20437;-77
2023/03/05 03:41:08;;;;;;;6.63;1.70;;;2.70;99.90;;;;;;4953589;28;20078;-77
2023/03/05 03:43:34;;;;;;;5.45;1.50;;;2.70;99.90;;;;;;4953867;28;20054;-76
2023/03/05 03:46:03;;;;;;;4.75;1.73;;;2.70;99.90;;;;;;4954243;28;20073;-76
2023/03/05 03:48:29;;;;;;;2.17;1.48;;;2.80;99.90;;;;;;4953493;28;20051;-77
2023/03/05 03:50:55;;;;;;;13.15;1.95;;;2.80;99.90;;;;;;4954019;28;20043;-77
2023/03/05 03:53:20;;;;;;;4.38;1.23;;;2.80;99.90;;;;;;4952497;29;20102;-79
2023/03/05 03:55:46;;;;;;;5.72;1.45;;;2.80;99.90;;;;;;4953121;28;20059;-77
2023/03/05 03:58:12;;;;;;;3.92;1.50;;;2.90;99.90;;;;;;4954056;28;20050;-77
2023/03/05 04:00:39;;;;;;;4.35;1.60;;;2.90;99.90;;;;;;4952682;28;20101;-77
2023/03/05 04:03:05;;;;;;;7.65;2.28;;;2.90;99.90;;;;;;4936377;29;20043;-77
2023/03/05 04:05:31;;;;;;;2.63;1.33;;;2.90;99.90;;;;;;4953379;28;20055;-77
2023/03/05 04:07:58;;;;;;;9.10;1.67;;;3.10;99.90;;;;;;4953180;28;20500;-77
2023/03/05 04:10:25;;;;;;;4.20;1.30;;;2.90;99.90;;;;;;4952984;28;20126;-76
2023/03/05 04:12:51;;;;;;;4.55;1.25;;;2.90;99.90;;;;;;4953890;28;20508;-76
2023/03/05 04:15:17;;;;;;;6.10;1.42;;;2.90;99.90;;;;;;4936935;29;20055;-77
2023/03/05 04:17:43;;;;;;;4.88;1.48;;;2.90;99.90;;;;;;4953312;28;20047;-76
2023/03/05 04:20:09;;;;;;;4.68;1.30;;;2.90;99.90;;;;;;4952753;29;20062;-77
2023/03/05 04:22:36;;;;;;;7.82;1.75;;;2.90;99.90;;;;;;4952742;28;20181;-77
2023/03/05 04:25:07;;;;;;;5.30;1.33;;;3.00;99.90;;;;;;4953143;28;20070;-77
2023/03/05 04:27:33;;;;;;;2.30;1.05;;;2.90;99.90;;;;;;4953338;28;20047;-77
2023/03/05 04:29:59;;;;;;;;;;;2.90;99.90;;;;;;4954032;28;20087;-77
2023/03/05 04:32:25;;;;;;;5.53;1.23;;;3.00;99.90;;;;;;4952189;29;20407;-77
2023/03/05 04:34:51;;;;;;;3.92;1.20;;;3.00;99.90;;;;;;4952539;28;20122;-77
2023/03/05 04:37:16;;;;;;;4.57;1.17;;;3.00;99.90;;;;;;4953435;28;20397;-77
2023/03/05 04:39:42;;;;;;;1.83;0.90;;;3.00;99.90;;;;;;4951621;29;20126;-78
2023/03/05 04:42:09;;;;;;;6.20;0.95;;;2.90;99.90;;;;;;4952487;28;20047;-76
2023/03/05 04:44:35;;;;;;;3.75;1.08;;;2.90;99.90;;;;;;4952705;28;20043;-76
2023/03/05 04:47:01;;;;;;;;;;;2.90;99.90;;;;;;4952448;29;20099;-78
2023/03/05 04:49:28;;;;;;;5.00;1.08;;;2.90;99.90;;;;;;4952251;28;19922;-76
2023/03/05 04:51:56;;;;;;;1.63;1.00;;;3.40;99.90;;;;;;4953165;28;20489;-77
2023/03/05 04:54:22;;;;;;;4.40;1.10;;;2.90;99.90;;;;;;4951704;28;20497;-77
2023/03/05 04:56:48;;;;;;;;;;;2.90;99.90;;;;;;4953291;28;20511;-77
2023/03/05 04:59:14;;;;;;;1.65;1.20;;;2.90;99.90;;;;;;4952352;29;19923;-77
2023/03/05 05:01:39;;;;;;;2.70;0.95;;;2.90;99.90;;;;;;4952974;28;20478;-76
2023/03/05 05:04:05;;;;;;;4.03;1.55;;;2.90;99.90;;;;;;4952242;29;20047;-78
2023/03/05 05:06:31;;;;;;;5.15;1.30;;;3.00;99.90;;;;;;4952832;28;20043;-78
2023/03/05 05:08:57;;;;;;;0.90;0.90;;;2.90;99.90;;;;;;4951104;29;20039;-77
2023/03/05 05:11:22;;;;;;;0.60;0.60;;;2.90;99.90;;;;;;4953254;28;20167;-77
2023/03/05 05:13:48;;;;;;;5.13;1.23;;;3.00;99.90;;;;;;4952946;28;20066;-76
2023/03/05 05:16:15;;;;;;;3.63;0.82;;;2.80;99.90;;;;;;4956753;28;20055;-77
2023/03/05 05:18:40;;;;;;;5.05;1.15;;;2.90;99.90;;;;;;4956279;28;20047;-77
2023/03/05 05:21:11;;;;;;;2.17;1.00;;;2.90;99.90;;;;;;4956750;28;20058;-77
2023/03/05 05:23:37;;;;;;;3.17;0.95;;;3.00;99.90;;;;;;4955987;28;20047;-77
2023/03/05 05:26:05;;;;;;;3.13;0.85;;;2.90;99.90;;;;;;4956279;28;20063;-77
2023/03/05 05:28:31;;;;;;;2.75;0.88;;;2.90;99.90;;;;;;4954755;29;20481;-76
2023/03/05 05:30:57;;;;;;;2.28;0.85;;;2.90;99.90;;;;;;4956620;28;20055;-77
2023/03/05 05:33:23;;;;;;;2.80;1.50;;;2.90;99.90;;;;;;4955290;29;20051;-77
2023/03/05 05:35:49;;;;;;;1.23;0.85;;;2.90;99.90;;;;;;4955158;29;20623;-77
2023/03/05 05:38:14;;;;;;;;;;;2.90;99.90;;;;;;4955328;29;20048;-76
2023/03/05 05:40:40;;;;;;;1.15;0.73;;;2.90;99.90;;;;;;4955626;28;19949;-76
2023/03/05 05:43:06;;;;;;;0.80;0.60;;;2.80;99.90;;;;;;4956432;28;20135;-77
2023/03/05 05:45:32;;;;;;;3.83;1.15;;;2.80;99.90;;;;;;4955910;28;20047;-77
2023/03/05 05:47:58;;;;;;;4.70;0.80;;;3.10;99.90;;;;;;4955753;28;20082;-76
2023/03/05 05:50:24;;;;;;;1.88;0.90;;;2.80;99.90;;;;;;4954963;29;20063;-77
2023/03/05 05:52:52;;;;;;;2.05;1.30;;;2.80;99.90;;;;;;4955417;28;20047;-77
2023/03/05 05:55:18;;;;;;;2.08;0.60;;;2.70;99.90;;;;;;4955610;28;20043;-76
2023/03/05 05:57:44;;;;;;;5.22;1.25;;;2.70;99.90;;;;;;4954336;28;20477;-77
2023/03/05 06:00:13;;;;;;;2.13;0.85;;;2.70;99.90;;;;;;4955093;28;20206;-77
2023/03/05 06:02:40;;;;;;;3.70;1.33;;;2.70;99.90;;;;;;4955215;28;20089;-77
2023/03/05 06:05:08;;;;;;;1.23;0.98;;;2.80;99.90;;;;;;4955763;28;20054;-76
2023/03/05 06:07:34;;;;;;;6.22;1.13;;;2.70;99.90;;;;;;4955042;28;20099;-76
2023/03/05 06:10:00;;;;;;;;;;;2.70;99.90;;;;;;4955783;28;20500;-77
2023/03/05 06:12:25;;;;;;;5.20;1.02;;;2.70;99.90;;;;;;4955499;28;19926;-76
2023/03/05 06:14:52;;;;;;;0.82;0.80;;;2.70;99.90;;;;;;4955460;28;20130;-77
2023/03/05 06:17:18;;;;;;;5.60;1.00;;;2.70;99.90;;;;;;4954744;29;20090;-77
2023/03/05 06:19:44;;;;;;;2.17;0.80;;;2.70;99.90;;;;;;4955271;28;20082;-77
2023/03/05 06:22:10;;;;;;;3.40;0.90;;;2.70;99.90;;;;;;4955421;28;20047;-78
2023/03/05 06:24:37;;;;;;;5.28;1.05;;;2.70;99.90;;;;;;4953773;28;20461;-77
2023/03/05 06:27:03;;;;;;;2.58;1.00;;;2.70;99.90;;;;;;4954676;28;20485;-77
2023/03/05 06:29:29;;;;;;;3.90;1.35;;;2.70;99.90;;;;;;4955505;28;20102;-76
2023/03/05 06:31:55;;;;;;;1.58;1.08;;;2.60;99.90;;;;;;4955060;28;20047;-77
2023/03/05 06:34:20;;;;;;;4.85;0.90;;;2.70;99.90;;;;;;4955351;28;20047;-77
2023/03/05 06:36:46;;;;;;;3.03;1.10;;;2.70;99.90;;;;;;4954613;28;20047;-77
2023/03/05 06:39:12;;;;;;;1.20;0.73;;;2.70;99.90;;;;;;4954134;28;20047;-76
2023/03/05 06:41:38;;;;;;;2.17;1.00;;;2.70;99.90;;;;;;4954875;28;20055;-77
2023/03/05 06:44:03;;;;;;;1.38;0.90;;;2.70;99.90;;;;;;4955317;28;20117;-77
2023/03/05 06:46:32;;;;;;;3.90;1.10;;;2.70;99.90;;;;;;4955265;28;20473;-76
2023/03/05 06:48:59;;;;;;;5.00;0.88;;;2.80;99.90;;;;;;4954534;28;20388;-77
2023/03/05 06:51:35;;;;;;;3.05;1.00;;;2.80;99.90;;;;;;4954044;29;20102;-77
2023/03/05 06:54:11;;;;;;;0.80;0.80;;;2.80;99.90;;;;;;4954099;28;20043;-77
2023/03/05 06:56:38;;;;;;;4.70;1.08;;;2.90;99.90;;;;;;4954441;28;20639;-80
2023/03/05 06:59:05;;;;;;;1.98;1.25;;;2.90;99.90;;;;;;4953448;29;20086;-76
2023/03/05 07:01:30;;;;;;;2.78;0.95;;;2.90;99.90;;;;;;4953750;29;20455;-77
2023/03/05 07:04:01;;;;;;;4.28;1.05;;;3.00;99.90;;;;;;4953354;29;20087;-77
2023/03/05 07:06:28;;;;;;;1.63;1.05;;;3.00;99.90;;;;;;4954898;28;20083;-77
2023/03/05 07:08:57;;;;;;;5.60;1.30;;;3.00;99.90;;;;;;4953432;28;20436;-77
2023/03/05 07:11:24;;;;;;;1.85;0.88;;;3.00;99.90;;;;;;4954785;28;20047;-76
2023/03/05 07:13:50;;;;;;;;;;;3.00;99.90;;;;;;4954886;28;20054;-76
2023/03/05 07:16:24;;;;;;;1.30;1.08;;;3.10;99.90;;;;;;4954627;28;19922;-77
2023/03/05 07:18:50;;;;;;;1.88;0.88;;;3.00;99.90;;;;;;4954206;28;20051;-77
2023/03/05 07:21:23;;;;;;;2.50;1.10;;;3.00;99.90;;;;;;4954608;28;20054;-77
2023/03/05 07:23:51;;;;;;;1.00;0.80;;;3.10;99.90;;;;;;4953265;28;20051;-77
2023/03/05 07:26:17;;;;;;;3.60;0.95;;;3.10;99.90;;;;;;4954440;28;20081;-77
2023/03/05 07:28:43;;;;;;;5.70;1.20;;;3.40;99.90;;;;;;4936998;29;20686;-78
2023/03/05 07:31:14;;;;;;;4.78;1.33;;;3.10;99.90;;;;;;4954449;28;20046;-77
2023/03/05 07:33:40;;;;;;;1.08;0.90;;;3.10;99.90;;;;;;4953921;28;20039;-80
2023/03/05 07:36:10;;;;;;;5.95;1.00;;;3.10;99.90;;;;;;4954262;28;20051;-77
2023/03/05 07:38:35;;;;;;;1.55;0.90;;;3.10;99.90;;;;;;4952866;28;20040;-77
2023/03/05 07:41:07;;;;;;;8.50;1.08;;;3.10;99.90;;;;;;4953206;28;20042;-77
2023/03/05 07:43:32;;;;;;;4.68;1.20;;;3.10;99.90;;;;;;4953132;29;20089;-67
2023/03/05 07:45:58;;;;;;;4.88;1.30;;;3.20;99.90;;;;;;4954072;28;20130;-65
2023/03/05 07:48:24;;;;;;;8.20;1.10;;;3.30;99.90;;;;;;4953974;28;20496;-66
2023/03/05 07:50:58;;;;;;;2.20;0.98;;;3.50;99.90;;;;;;4953709;28;20508;-67
2023/03/05 07:53:24;;;;;;;3.33;1.38;;;3.60;99.90;;;;;;4953312;28;20047;-67
2023/03/05 07:55:50;;;;;;;2.72;1.15;;;3.70;99.90;;;;;;4953180;28;20063;-74
2023/03/05 07:58:15;;;;;;;1.65;1.10;;;3.80;99.90;;;;;;4954057;28;20101;-73
2023/03/05 08:00:41;;;;;;;2.75;1.20;;;3.80;99.90;;;;;;4952772;29;20109;-79
2023/03/05 08:03:07;;;;;;;5.00;2.13;;;3.80;99.90;;;;;;4953724;28;20051;-74
2023/03/05 08:05:33;;;;;;;5.43;0.90;;;3.70;99.90;;;;;;4953891;28;20082;-75
2023/03/05 08:07:59;;;;;;;0.98;0.90;;;3.70;99.90;;;;;;4952993;28;20050;-75
2023/03/05 08:10:24;;;;;;;6.38;1.30;;;3.70;99.90;;;;;;4952833;28;20393;-76
2023/03/05 08:12:50;;;;;;;11.55;1.73;;;4.10;99.90;;;;;;4953472;28;20393;-74
2023/03/05 08:15:16;;;;;;;5.00;1.20;;;3.60;99.90;;;;;;4953900;28;20137;-74
2023/03/05 08:17:41;;;;;;;3.15;1.00;;;3.70;99.90;;;;;;4953631;28;20046;-80
2023/03/05 08:20:09;;;;;;;7.40;1.48;;;3.70;99.90;;;;;;4952498;29;20055;-74
2023/03/05 08:22:36;;;;;;;4.40;1.42;;;3.70;99.90;;;;;;4952873;28;20051;-74
2023/03/05 08:25:04;;;;;;;6.10;1.60;;;3.70;99.90;;;;;;4952005;29;20059;-75
2023/03/05 08:27:30;;;;;;;1.88;1.00;;;3.70;99.90;;;;;;4953600;28;20051;-74
2023/03/05 08:29:55;;;;;;;1.77;1.10;;;3.70;99.90;;;;;;4953263;28;20058;-74
2023/03/05 08:32:21;;;;;;;3.33;0.90;;;3.80;99.90;;;;;;4953681;28;20066;-76
2023/03/05 08:34:47;;;;;;;2.75;1.05;;;3.80;99.90;;;;;;4952944;28;20489;-75
2023/03/05 08:37:13;;;;;;;4.35;1.05;;;3.80;99.90;;;;;;4953155;28;20110;-77
2023/03/05 08:39:39;;;;;;;3.88;1.50;;;3.80;99.90;;;;;;4952099;29;20051;-75
2023/03/05 08:42:05;;;;;;;1.58;0.98;;;3.90;99.90;;;;;;4953516;28;20664;-75
2023/03/05 08:44:30;;;;;;;1.63;1.00;;;3.90;99.90;;;;;;4953373;28;20094;-74
2023/03/05 08:46:56;;;;;;;2.35;0.90;;;3.90;99.90;;;;;;4952929;28;20086;-74
2023/03/05 08:49:22;;;;;;;1.50;1.10;;;3.90;99.90;;;;;;4953597;28;20126;-76
2023/03/05 08:51:48;;;;;;;4.95;1.10;;;4.00;99.90;;;;;;4957028;28;20054;-75
2023/03/05 08:54:13;;;;;;;4.68;1.10;;;4.00;99.90;;;;;;4955355;29;20047;-75
2023/03/05 08:56:39;;;;;;;6.13;1.13;;;4.00;99.90;;;;;;4956824;28;20142;-76
2023/03/05 08:59:05;;;;;;;1.52;1.00;;;4.10;99.90;;;;;;4956805;28;20047;-75
2023/03/05 09:01:31;;;;;;;8.15;1.05;;;4.20;99.90;;;;;;4956985;28;20130;-77
2023/03/05 09:04:00;;;;;;;3.33;1.05;;;4.20;99.90;;;;;;4939519;29;20055;-74
2023/03/05 09:06:26;;;;;;;2.45;1.05;;;4.20;99.90;;;;;;4955422;28;20051;-76
2023/03/05 09:08:53;;;;;;;2.38;1.02;;;4.30;99.90;;;;;;4954333;29;20055;-76
2023/03/05 09:11:19;;;;;;;4.05;1.30;;;4.40;99.90;;;;;;4956925;28;20126;-72
2023/03/05 09:13:45;;;;;;;5.32;1.40;;;4.40;99.90;;;;;;4955731;28;20059;-81
2023/03/05 09:16:14;;;;;;;6.85;1.13;;;4.50;99.90;;;;;;4956439;28;20093;-78
2023/03/05 09:18:41;;;;;;;2.25;0.82;;;4.60;99.90;;;;;;4956234;28;20083;-78
2023/03/05 09:21:07;;;;;;;;;;;4.70;99.90;;;;;;4956133;28;20338;-77
2023/03/05 09:23:33;;;;;;;2.92;1.23;;;4.70;99.90;;;;;;4954675;29;19933;-77
2023/03/05 09:25:58;;;;;;;7.35;1.75;;;4.80;99.90;;;;;;4955174;28;20477;-78
2023/03/05 09:28:24;;;;;;;11.02;1.48;;;4.90;99.90;;;;;;4956062;28;20051;-77
2023/03/05 09:30:50;;;;;;;2.05;1.10;;;5.10;99.90;;;;;;4955701;28;20047;-77
2023/03/05 09:33:16;;;;;;;4.90;1.00;;;5.10;99.90;;;;;;4955793;28;20497;-77
2023/03/05 09:35:41;;;;;;;1.50;0.85;;;5.20;99.90;;;;;;4955509;28;20138;-77
2023/03/05 09:38:07;;;;;;;5.38;1.05;;;5.20;99.90;;;;;;4954924;28;20047;-77
2023/03/05 09:40:56;;;;;;;3.05;1.17;;;5.30;99.90;;;;;;4955680;29;20058;-77
2023/03/05 09:43:29;;;;;;;7.57;1.25;;;5.30;99.90;;;;;;4953014;29;20054;-77
2023/03/05 09:46:13;;;;;;;3.63;1.00;;;5.40;99.90;;;;;;4955334;28;20047;-78
2023/03/05 09:48:48;;;;;;;3.85;0.90;;;5.40;99.90;;;;;;4955120;28;20047;-78
2023/03/05 09:51:38;;;;;;;4.70;1.40;;;5.40;99.90;;;;;;4954168;29;20089;-79
2023/03/05 09:54:19;;;;;;;5.05;1.17;;;5.50;99.90;;;;;;4954162;28;20101;-77
2023/03/05 09:56:57;;;;;;;3.03;1.02;;;5.60;99.90;;;;;;4955488;28;20082;-80
2023/03/05 09:59:31;;;;;;;4.80;1.10;;;5.70;99.90;;;;;;4954274;29;20528;-78
2023/03/05 10:02:03;;;;;;;7.85;1.10;;;5.70;99.90;;;;;;4954381;28;20083;-83
2023/03/05 10:04:47;;;;;;;3.05;1.00;;;5.90;99.90;;;;;;4954835;29;20449;-84
2023/03/05 10:07:45;;;;;;;3.65;0.60;;;5.80;99.90;;;;;;4953858;29;20386;-80
2023/03/05 10:10:23;;;;;;;2.22;0.88;;;5.90;99.90;;;;;;4955513;28;20321;-71
2023/03/05 10:12:54;;;;;;;7.10;1.30;;;6.00;99.90;;;;;;4954212;28;20396;-71
2023/03/05 10:15:35;;;;;;;5.20;1.00;;;6.20;99.90;;;;;;4954916;28;20051;-77
2023/03/05 10:18:25;;;;;;;5.47;1.20;;;6.50;99.90;;;;;;4954663;28;20043;-76
2023/03/05 10:20:54;;;;;;;3.45;0.80;;;6.50;99.90;;;;;;4955241;28;20489;-80
2023/03/05 10:23:44;;;;;;;5.28;1.42;;;6.50;99.90;;;;;;4955157;28;20051;-80
2023/03/05 10:26:41;;;;;;;1.10;0.73;;;6.50;99.90;;;;;;4955057;28;20051;-75
2023/03/05 10:29:19;;;;;;;4.97;1.10;;;6.40;99.90;;;;;;4953761;28;20134;-76
2023/03/05 10:32:05;;;;;;;1.83;0.77;;;6.40;99.90;;;;;;4955165;28;20082;-76
2023/03/05 10:34:58;;;;;;;1.90;1.08;;;6.40;99.90;;;;;;4955079;28;20044;-76
2023/03/05 10:37:49;;;;;;;2.67;0.95;;;6.40;99.90;;;;;;4953531;29;20110;-76
2023/03/05 10:40:28;;;;;;;3.70;0.65;;;6.50;99.90;;;;;;4954334;28;20043;-78
2023/03/05 10:43:19;;;;;;;3.22;1.02;;;6.40;99.90;;;;;;4954816;28;20047;-80
2023/03/05 10:45:51;;;;;;;6.18;0.95;;;6.40;99.90;;;;;;4955110;28;20057;-78
2023/03/05 10:48:39;;;;;;;5.38;1.08;;;6.40;99.90;;;;;;4954075;28;20143;-78
2023/03/05 10:51:18;;;;;;;7.95;0.90;;;6.50;99.90;;;;;;4954008;28;20047;-76
2023/03/05 10:53:55;;;;;;;5.10;0.70;;;6.50;99.90;;;;;;4953219;28;20477;-80
2023/03/05 10:56:24;;;;;;;5.05;1.17;;;6.50;99.90;;;;;;4953928;28;20059;-78
2023/03/05 10:58:51;;;;;;;4.35;1.00;;;6.60;99.90;;;;;;4953951;28;20050;-77
2023/03/05 11:01:17;;;;;;;5.82;0.93;;;6.60;99.90;;;;;;4953810;28;20051;-77
2023/03/05 11:04:03;;;;;;;4.75;1.00;;;6.60;99.90;;;;;;4953645;28;20098;-77
2023/03/05 11:06:41;;;;;;;1.87;0.70;;;6.70;99.90;;;;;;4952995;28;20059;-79
2023/03/05 11:09:31;;;;;;;2.45;0.85;;;6.70;99.90;;;;;;4952654;28;20046;-77
2023/03/05 11:12:11;;;;;;;2.53;0.60;;;6.80;99.90;;;;;;4953788;28;20073;-82
2023/03/05 11:14:41;;;;;;;0.57;0.40;;;6.80;99.90;;;;;;4953849;28;20588;-78
2023/03/05 11:17:38;;;;;;;2.80;0.68;;;6.60;99.90;;;;;;4953494;28;20051;-79
2023/03/05 11:20:31;;;;;;;1.45;0.47;;;6.50;99.90;;;;;;4955816;28;20055;-79
2023/03/05 11:23:23;;;;;;;1.65;1.02;;;6.30;99.90;;;;;;4953150;28;20078;-82
2023/03/05 11:26:11;;;;;;;0.50;0.47;;;6.20;99.90;;;;;;4953603;28;20110;-78
2023/03/05 11:28:39;;;;;;;0.98;0.88;;;6.10;99.90;;;;;;4952766;28;20054;-77
2023/03/05 11:31:17;;;;;;;2.65;0.70;;;6.00;99.90;;;;;;4953751;28;20039;-78
2023/03/05 11:34:19;;;;;;;4.00;0.88;;;6.00;99.90;;;;;;4953189;28;20046;-79
2023/03/05 11:37:13;;;;;;;4.57;0.90;;;6.00;99.90;;;;;;4953161;29;20055;-78
2023/03/05 11:39:39;;;;;;;2.55;0.75;;;6.10;99.90;;;;;;4952366;29;20472;-76
2023/03/05 11:42:23;;;;;;;0.93;0.73;;;6.20;99.90;;;;;;4953851;28;20127;-78
2023/03/05 11:44:52;;;;;;;1.05;0.52;;;6.10;99.90;;;;;;4953339;29;20098;-77
2023/03/05 11:47:45;;;;;;;3.47;0.77;;;6.00;99.90;;;;;;4953546;28;20055;-77
2023/03/05 11:50:31;;;;;;;1.48;0.55;;;5.80;99.90;;;;;;4951889;29;20405;-78
2023/03/05 11:53:00;;;;;;;2.38;0.63;;;5.70;99.90;;;;;;4953618;28;20051;-77
2023/03/05 11:55:50;;;;;;;4.43;0.90;;;5.50;99.90;;;;;;4953390;28;20047;-77
2023/03/05 11:58:40;;;;;;;2.13;0.90;;;5.50;99.90;;;;;;4953434;28;20055;-77
2023/03/05 12:01:33;;;;;;;4.05;0.90;;;5.50;99.90;;;;;;4953527;28;20073;-77
2023/03/05 12:03:59;;;;;;;2.90;0.70;;;5.50;99.90;;;;;;4952823;29;20047;-77
2023/03/05 12:06:36;;;;;;;1.00;0.70;;;5.50;99.90;;;;;;4953449;28;20051;-77
2023/03/05 12:09:11;;;;;;;8.30;1.17;;;5.60;99.90;;;;;;4952417;28;20127;-80
2023/03/05 12:11:37;;;;;;;4.15;0.98;;;5.80;99.90;;;;;;4952673;29;20050;-77
2023/03/05 12:14:13;;;;;;;3.65;0.85;;;6.00;99.90;;;;;;4953225;28;20059;-80
2023/03/05 12:16:47;;;;;;;0.60;0.60;;;6.20;99.90;;;;;;4952992;29;20055;-77
2023/03/05 12:19:37;;;;;;;3.40;0.90;;;6.50;99.90;;;;;;4936272;29;20063;-77
2023/03/05 12:22:13;;;;;;;1.02;0.60;;;6.80;99.90;;;;;;4953102;28;20527;-82
2023/03/05 12:24:38;;;;;;;2.75;0.60;;;7.00;99.90;;;;;;4951265;29;20058;-78
2023/03/05 12:27:08;;;;;;;3.72;0.93;;;7.20;99.90;;;;;;4952972;28;20401;-83
2023/03/05 12:29:41;;;;;;;0.52;0.50;;;7.40;99.90;;;;;;4952320;29;20059;-79
2023/03/05 12:32:21;;;;;;;2.97;0.85;;;7.50;99.90;;;;;;4952991;28;20506;-80
2023/03/05 12:34:54;;;;;;;2.13;0.60;;;7.70;99.90;;;;;;4952449;28;20047;-78
2023/03/05 12:37:20;;;;;;;1.33;0.75;;;7.80;99.90;;;;;;4952587;28;20054;-78
2023/03/05 12:39:59;;;;;;;2.38;0.95;;;7.90;99.90;;;;;;4952967;28;20044;-78
2023/03/05 12:42:28;;;;;;;3.08;1.02;;;8.10;99.90;;;;;;4952898;28;20217;-79
2023/03/05 12:45:09;;;;;;;6.68;1.20;;;8.30;99.90;;;;;;4953510;28;20086;-78
2023/03/05 12:47:42;;;;;;;1.95;0.80;;;8.40;99.90;;;;;;4952192;28;20568;-78
2023/03/05 12:50:26;;;;;;;3.95;0.60;;;8.40;99.90;;;;;;4952697;28;20555;-77
2023/03/05 12:53:11;;;;;;;1.60;0.80;;;8.40;99.90;;;;;;4952013;29;20051;-76
2023/03/05 12:56:00;;;;;;;5.72;1.48;;;8.50;99.90;;;;;;4951827;28;20051;-76
2023/03/05 12:58:35;;;;;;;2.38;0.73;;;8.70;99.90;;;;;;4950846;29;20632;-77
2023/03/05 13:01:12;;;;;;;1.27;1.10;;;9.00;99.90;;;;;;4953310;28;20051;-79
2023/03/05 13:04:05;;;;;;;4.50;0.90;;;9.30;99.90;;;;;;4953260;28;20137;-78
2023/03/05 13:06:34;;;;;;;2.30;0.98;;;9.60;99.90;;;;;;4952715;28;20133;-78
2023/03/05 13:09:21;;;;;;;2.13;0.70;;;9.90;99.90;;;;;;4952083;28;20497;-80
2023/03/05 13:11:50;;;;;;;2.22;0.70;;;10.20;99.90;;;;;;4952689;28;20131;-78
2023/03/05 13:14:36;;;;;;;4.70;1.25;;;10.50;99.90;;;;;;4952473;28;20425;-78